Time;durP1;ratioP1;P1;durP2;ratioP2;P2;SDS_P1;SDS_P2;PMS_P1;PMS_P2;Temp;Humidity;BMP_temperature;BMP_pressure;BME280_temperature;BME280_humidity;BME280_pressure;Samples;Min_cycle;Max_cycle;Signal;HPM_P1;HPM_P2
2023/11/29 00:01:39;;;;;;;;;24.75;19.25;;;;;;;;5076437;27;45379;-69
2023/11/29 00:04:04;;;;;;;;;27.75;22.75;;;;;;;;5081969;27;45328;-69
2023/11/29 00:06:30;;;;;;;;;28.00;24.75;;;;;;;;5076912;27;45421;-70
2023/11/29 00:08:57;;;;;;;;;28.75;25.00;;;;;;;;5070632;27;45748;-69
2023/11/29 00:11:22;;;;;;;;;25.25;21.50;;;;;;;;5078739;27;45593;-71
2023/11/29 00:13:47;;;;;;;;;25.25;24.50;;;;;;;;5077720;27;45609;-69
2023/11/29 00:16:12;;;;;;;;;25.00;22.33;;;;;;;;5076016;27;45471;-68
2023/11/29 00:18:38;;;;;;;;;26.33;25.00;;;;;;;;5075615;28;46595;-69
2023/11/29 00:21:03;;;;;;;;;28.67;22.00;;;;;;;;5076200;27;45583;-68
2023/11/29 00:23:30;;;;;;;;;27.75;24.00;;;;;;;;5076518;27;45429;-68
2023/11/29 00:25:55;;;;;;;;;32.00;25.00;;;;;;;;5076617;27;45560;-70
2023/11/29 00:28:20;;;;;;;;;35.00;26.00;;;;;;;;5077590;27;46051;-69
2023/11/29 00:30:45;;;;;;;;;25.25;24.25;;;;;;;;5075859;28;45466;-68
2023/11/29 00:33:10;;;;;;;;;25.00;21.33;;;;;;;;5075680;27;45485;-69
2023/11/29 00:35:36;;;;;;;;;20.50;15.75;;;;;;;;5075703;27;45461;-69
2023/11/29 00:38:01;;;;;;;;;18.67;16.67;;;;;;;;5075406;27;45639;-68
2023/11/29 00:40:26;;;;;;;;;19.33;14.67;;;;;;;;5075527;28;45424;-69
2023/11/29 00:42:51;;;;;;;;;19.67;17.67;;;;;;;;5075735;28;45417;-68
2023/11/29 00:45:16;;;;;;;;;19.33;16.00;;;;;;;;5075811;28;45811;-68
2023/11/29 00:47:41;;;;;;;;;17.00;15.00;;;;;;;;5079202;27;45600;-69
2023/11/29 00:50:07;;;;;;;;;16.00;12.00;;;;;;;;5075656;27;46800;-68
2023/11/29 00:52:32;;;;;;;;;18.25;15.00;;;;;;;;5076516;27;46861;-68
2023/11/29 00:54:57;;;;;;;;;15.67;13.00;;;;;;;;5070428;27;45490;-69
2023/11/29 00:57:22;;;;;;;;;22.50;15.00;;;;;;;;5078820;27;46271;-70
2023/11/29 00:59:48;;;;;;;;;14.67;14.00;;;;;;;;5080718;27;45516;-70
2023/11/29 01:02:13;;;;;;;;;17.67;14.00;;;;;;;;5076688;27;45390;-68
2023/11/29 01:04:38;;;;;;;;;15.00;12.75;;;;;;;;5076663;27;45597;-68
2023/11/29 01:07:04;;;;;;;;;13.00;13.00;;;;;;;;5075593;27;45938;-68
2023/11/29 01:09:29;;;;;;;;;17.00;14.25;;;;;;;;5075528;27;45391;-68
2023/11/29 01:11:54;;;;;;;;;14.00;11.25;;;;;;;;5075579;27;45399;-71
2023/11/29 01:14:19;;;;;;;;;17.25;10.75;;;;;;;;5076123;27;45439;-69
2023/11/29 01:16:45;;;;;;;;;10.67;9.67;;;;;;;;5075735;28;45438;-69
2023/11/29 01:19:10;;;;;;;;;20.00;13.00;;;;;;;;5074433;27;45200;-69
2023/11/29 01:21:38;;;;;;;;;12.33;11.00;;;;;;;;5078602;27;45381;-68
2023/11/29 01:24:03;;;;;;;;;20.50;13.75;;;;;;;;5075768;27;45403;-72
2023/11/29 01:26:29;;;;;;;;;13.75;12.00;;;;;;;;5075483;27;46417;-71
2023/11/29 01:28:54;;;;;;;;;20.50;14.00;;;;;;;;5075171;27;45316;-69
2023/11/29 01:31:25;;;;;;;;;18.25;12.50;;;;;;;;5073578;27;45295;-71
2023/11/29 01:33:51;;;;;;;;;11.75;10.25;;;;;;;;5074982;27;45456;-68
2023/11/29 01:36:16;;;;;;;;;14.00;9.50;;;;;;;;5079147;27;47648;-70
2023/11/29 01:38:41;;;;;;;;;12.50;9.25;;;;;;;;5075579;27;45439;-68
2023/11/29 01:41:06;;;;;;;;;9.33;8.67;;;;;;;;5078866;27;45640;-68
2023/11/29 01:43:32;;;;;;;;;7.00;6.00;;;;;;;;5078975;28;45500;-68
2023/11/29 01:45:57;;;;;;;;;12.75;6.50;;;;;;;;5076972;27;45667;-68
2023/11/29 01:48:22;;;;;;;;;11.00;9.00;;;;;;;;5074042;27;45489;-69
2023/11/29 01:50:49;;;;;;;;;9.25;6.00;;;;;;;;5079281;28;46493;-71
2023/11/29 01:53:19;;;;;;;;;5.00;5.00;;;;;;;;5083030;27;45585;-69
2023/11/29 01:55:48;;;;;;;;;13.00;8.50;;;;;;;;5080774;27;47363;-68
2023/11/29 01:58:13;;;;;;;;;6.00;5.00;;;;;;;;5079842;27;45449;-70
2023/11/29 02:00:38;;;;;;;;;9.25;9.25;;;;;;;;5079102;27;46497;-69
2023/11/29 02:03:03;;;;;;;;;10.00;7.67;;;;;;;;5079045;27;45687;-69
2023/11/29 02:05:29;;;;;;;;;9.00;8.75;;;;;;;;5078625;27;45650;-68
2023/11/29 02:07:54;;;;;;;;;6.00;6.00;;;;;;;;5078370;27;45422;-68
2023/11/29 02:10:19;;;;;;;;;8.00;5.00;;;;;;;;5078615;27;45323;-69
2023/11/29 02:12:44;;;;;;;;;5.00;5.00;;;;;;;;5078304;28;45383;-68
2023/11/29 02:15:10;;;;;;;;;14.00;7.00;;;;;;;;5078215;28;45649;-68
2023/11/29 02:17:35;;;;;;;;;8.25;6.00;;;;;;;;5077639;27;45337;-72
2023/11/29 02:20:00;;;;;;;;;11.25;7.00;;;;;;;;5079110;28;45271;-70
2023/11/29 02:22:27;;;;;;;;;6.25;6.25;;;;;;;;5078246;27;45371;-68
2023/11/29 02:24:52;;;;;;;;;8.75;5.00;;;;;;;;5083017;27;46803;-69
2023/11/29 02:27:17;;;;;;;;;9.33;7.00;;;;;;;;5078135;27;45418;-69
2023/11/29 02:29:42;;;;;;;;;7.75;7.75;;;;;;;;5082162;27;45495;-68
2023/11/29 02:32:08;;;;;;;;;8.25;6.50;;;;;;;;5079480;27;46359;-70
2023/11/29 02:34:35;;;;;;;;;11.75;7.00;;;;;;;;5077593;27;46556;-69
2023/11/29 02:37:01;;;;;;;;;11.75;10.25;;;;;;;;5078180;27;45381;-68
2023/11/29 02:39:26;;;;;;;;;10.50;9.50;;;;;;;;5077539;27;45372;-69
2023/11/29 02:41:53;;;;;;;;;7.33;7.33;;;;;;;;5077890;28;45452;-69
2023/11/29 02:44:18;;;;;;;;;10.00;10.00;;;;;;;;5076853;27;47514;-68
2023/11/29 02:46:43;;;;;;;;;11.00;9.67;;;;;;;;5078868;27;45461;-69
2023/11/29 02:49:09;;;;;;;;;10.25;10.25;;;;;;;;5076749;27;45597;-70
2023/11/29 02:51:34;;;;;;;;;11.33;11.00;;;;;;;;5076918;28;45502;-71
2023/11/29 02:53:59;;;;;;;;;16.67;14.00;;;;;;;;5077289;27;45639;-69
2023/11/29 02:56:24;;;;;;;;;15.00;14.00;;;;;;;;5077410;27;45558;-68
2023/11/29 02:58:49;;;;;;;;;10.67;8.33;;;;;;;;5078134;28;45445;-68
2023/11/29 03:01:14;;;;;;;;;15.00;11.00;;;;;;;;5082052;27;45632;-71
2023/11/29 03:03:40;;;;;;;;;15.67;14.33;;;;;;;;5081053;27;46444;-69
2023/11/29 03:06:05;;;;;;;;;19.33;15.00;;;;;;;;5077002;27;45504;-72
2023/11/29 03:08:30;;;;;;;;;17.75;16.50;;;;;;;;5077848;27;45393;-71
2023/11/29 03:10:56;;;;;;;;;19.00;15.67;;;;;;;;5077806;27;47031;-71
2023/11/29 03:13:25;;;;;;;;;22.00;15.50;;;;;;;;5077225;27;46484;-69
2023/11/29 03:15:50;;;;;;;;;16.50;15.50;;;;;;;;5079100;27;45490;-69
2023/11/29 03:18:15;;;;;;;;;17.00;16.00;;;;;;;;5077417;27;45430;-71
2023/11/29 03:20:41;;;;;;;;;18.25;15.25;;;;;;;;5082499;27;46553;-69
2023/11/29 03:23:06;;;;;;;;;16.50;15.50;;;;;;;;5077037;27;46455;-70
2023/11/29 03:25:31;;;;;;;;;20.67;16.33;;;;;;;;5077443;27;45151;-69
2023/11/29 03:27:56;;;;;;;;;23.00;18.00;;;;;;;;5078294;27;45209;-69
2023/11/29 03:30:21;;;;;;;;;23.67;21.33;;;;;;;;5077245;27;45653;-69
2023/11/29 03:32:46;;;;;;;;;17.33;15.00;;;;;;;;5078871;27;46126;-69
2023/11/29 03:35:12;;;;;;;;;15.33;15.33;;;;;;;;5076794;27;45536;-68
2023/11/29 03:37:37;;;;;;;;;17.00;17.00;;;;;;;;5076689;28;45596;-69
2023/11/29 03:40:02;;;;;;;;;19.00;13.33;;;;;;;;5077369;27;45555;-69
2023/11/29 03:42:27;;;;;;;;;18.25;17.00;;;;;;;;5079102;27;47965;-71
2023/11/29 03:44:53;;;;;;;;;21.00;17.33;;;;;;;;5076668;27;45564;-68
2023/11/29 03:47:18;;;;;;;;;15.33;12.67;;;;;;;;5077643;27;45428;-69
2023/11/29 03:49:43;;;;;;;;;13.33;12.67;;;;;;;;5076604;27;45232;-70
2023/11/29 03:52:08;;;;;;;;;14.67;14.00;;;;;;;;5076893;27;47521;-69
2023/11/29 03:54:33;;;;;;;;;15.00;14.00;;;;;;;;5076774;27;45480;-68
2023/11/29 03:56:58;;;;;;;;;15.67;13.67;;;;;;;;5076261;27;45583;-69
2023/11/29 03:59:24;;;;;;;;;16.25;13.50;;;;;;;;5076658;27;45569;-68
2023/11/29 04:01:49;;;;;;;;;14.33;11.67;;;;;;;;5083776;27;46623;-70
2023/11/29 04:04:14;;;;;;;;;14.25;12.75;;;;;;;;5075806;27;45531;-72
2023/11/29 04:06:39;;;;;;;;;18.00;13.75;;;;;;;;5076521;27;45298;-70
2023/11/29 04:09:04;;;;;;;;;18.67;12.33;;;;;;;;5077593;27;45348;-69
2023/11/29 04:11:30;;;;;;;;;10.00;10.00;;;;;;;;5077274;27;46470;-71
2023/11/29 04:13:55;;;;;;;;;15.75;14.25;;;;;;;;5080105;27;45332;-69
2023/11/29 04:16:21;;;;;;;;;17.50;14.50;;;;;;;;5075884;27;45600;-68
2023/11/29 04:18:47;;;;;;;;;14.50;12.25;;;;;;;;5076661;27;45628;-69
2023/11/29 04:21:19;;;;;;;;;11.25;11.25;;;;;;;;5077281;27;45669;-69
2023/11/29 04:23:44;;;;;;;;;15.50;14.25;;;;;;;;5076281;27;45677;-68
2023/11/29 04:26:20;;;;;;;;;12.33;12.33;;;;;;;;5073251;27;45296;-71
2023/11/29 04:28:45;;;;;;;;;18.75;14.75;;;;;;;;5074663;27;45379;-69
2023/11/29 04:31:13;;;;;;;;;18.75;15.00;;;;;;;;5079747;27;46655;-69
2023/11/29 04:33:41;;;;;;;;;11.75;9.75;;;;;;;;5076283;27;45457;-68
2023/11/29 04:36:06;;;;;;;;;19.50;14.00;;;;;;;;5075336;28;45562;-70
2023/11/29 04:38:32;;;;;;;;;14.00;14.00;;;;;;;;5075280;27;45335;-69
2023/11/29 04:40:57;;;;;;;;;14.33;12.00;;;;;;;;5076269;28;47635;-71
2023/11/29 04:43:22;;;;;;;;;7.00;7.00;;;;;;;;5075664;28;46075;-69
2023/11/29 04:45:47;;;;;;;;;15.00;10.00;;;;;;;;5076316;28;45501;-68
2023/11/29 04:48:12;;;;;;;;;14.33;11.67;;;;;;;;5071892;27;45326;-69
2023/11/29 04:50:37;;;;;;;;;10.00;10.00;;;;;;;;5072821;28;46266;-69
2023/11/29 04:53:03;;;;;;;;;15.00;12.33;;;;;;;;5075821;27;45846;-70
2023/11/29 04:55:28;;;;;;;;;17.67;13.67;;;;;;;;5059102;27;45329;-69
2023/11/29 04:57:53;;;;;;;;;12.67;9.33;;;;;;;;5076491;27;45413;-72
2023/11/29 05:00:18;;;;;;;;;14.00;11.67;;;;;;;;5075088;28;45756;-71
2023/11/29 05:02:44;;;;;;;;;15.50;12.50;;;;;;;;5075793;28;45451;-69
2023/11/29 05:05:09;;;;;;;;;12.50;12.00;;;;;;;;5076337;28;45260;-72
2023/11/29 05:07:34;;;;;;;;;11.00;9.25;;;;;;;;5076430;28;45336;-72
2023/11/29 05:09:59;;;;;;;;;11.00;11.00;;;;;;;;5075635;28;46208;-68
2023/11/29 05:12:25;;;;;;;;;10.00;10.00;;;;;;;;5075779;28;45391;-69
2023/11/29 05:14:50;;;;;;;;;10.00;9.00;;;;;;;;5079408;28;45224;-68
2023/11/29 05:17:15;;;;;;;;;15.00;11.25;;;;;;;;5079093;28;45846;-72
2023/11/29 05:19:40;;;;;;;;;16.33;13.00;;;;;;;;5079928;28;45659;-70
2023/11/29 05:22:05;;;;;;;;;13.67;13.00;;;;;;;;5079185;28;45294;-69
2023/11/29 05:24:31;;;;;;;;;14.00;11.00;;;;;;;;5079235;28;45464;-71
2023/11/29 05:26:56;;;;;;;;;11.00;11.00;;;;;;;;5078945;28;45411;-69
2023/11/29 05:29:21;;;;;;;;;12.00;9.50;;;;;;;;5078879;28;47752;-68
2023/11/29 05:31:46;;;;;;;;;10.00;9.00;;;;;;;;5079083;28;45460;-69
2023/11/29 05:34:11;;;;;;;;;9.75;9.75;;;;;;;;5078477;28;45317;-71
2023/11/29 05:36:37;;;;;;;;;8.33;7.33;;;;;;;;5070360;27;45556;-69
2023/11/29 05:39:02;;;;;;;;;6.67;6.67;;;;;;;;5076032;28;46516;-69
2023/11/29 05:41:28;;;;;;;;;8.75;6.75;;;;;;;;5079781;27;46956;-68
2023/11/29 05:43:53;;;;;;;;;14.00;8.67;;;;;;;;5078240;28;45644;-70
2023/11/29 05:46:18;;;;;;;;;8.00;5.75;;;;;;;;5078042;28;45494;-68
2023/11/29 05:48:44;;;;;;;;;8.50;5.75;;;;;;;;5078778;28;45371;-69
2023/11/29 05:51:11;;;;;;;;;9.50;6.50;;;;;;;;5078449;28;45324;-68
2023/11/29 05:53:37;;;;;;;;;5.00;5.00;;;;;;;;5076655;28;45410;-72
2023/11/29 05:56:04;;;;;;;;;6.50;6.50;;;;;;;;5083908;27;45420;-69
2023/11/29 05:58:29;;;;;;;;;5.25;5.25;;;;;;;;5078959;27;47595;-72
2023/11/29 06:00:54;;;;;;;;;7.67;7.67;;;;;;;;5078854;27;45327;-68
2023/11/29 06:03:21;;;;;;;;;5.00;5.00;;;;;;;;5079724;27;45458;-69
2023/11/29 06:05:47;;;;;;;;;7.50;7.50;;;;;;;;5082355;27;45483;-69
2023/11/29 06:08:12;;;;;;;;;9.75;6.00;;;;;;;;5079771;27;46470;-69
2023/11/29 06:10:37;;;;;;;;;9.75;7.00;;;;;;;;5078404;27;45279;-69
2023/11/29 06:13:03;;;;;;;;;7.00;5.00;;;;;;;;5080740;27;45468;-69
2023/11/29 06:15:28;;;;;;;;;8.00;7.00;;;;;;;;5078840;27;45465;-71
2023/11/29 06:17:53;;;;;;;;;7.00;6.75;;;;;;;;5070601;28;45668;-71
2023/11/29 06:20:21;;;;;;;;;7.50;6.75;;;;;;;;5077937;27;45478;-68
2023/11/29 06:22:46;;;;;;;;;13.50;7.50;;;;;;;;5078870;27;45545;-68
2023/11/29 06:25:11;;;;;;;;;8.00;6.33;;;;;;;;5077833;28;45326;-72
2023/11/29 06:27:37;;;;;;;;;7.50;7.00;;;;;;;;5084922;27;46368;-69
2023/11/29 06:30:03;;;;;;;;;6.67;6.33;;;;;;;;5078060;27;45564;-68
2023/11/29 06:32:28;;;;;;;;;7.75;6.50;;;;;;;;5073451;28;45237;-69
2023/11/29 06:34:56;;;;;;;;;12.33;6.33;;;;;;;;5078847;27;45755;-69
2023/11/29 06:37:21;;;;;;;;;10.75;7.00;;;;;;;;5077681;27;46708;-70
2023/11/29 06:39:46;;;;;;;;;6.25;6.25;;;;;;;;5076266;27;45678;-69
2023/11/29 06:42:13;;;;;;;;;8.50;6.25;;;;;;;;5077985;27;46167;-69
2023/11/29 06:44:38;;;;;;;;;5.50;5.50;;;;;;;;5080371;27;45493;-71
2023/11/29 06:47:04;;;;;;;;;8.25;6.75;;;;;;;;5079931;27;45924;-69
2023/11/29 06:49:29;;;;;;;;;6.00;2.00;;;;;;;;5077466;27;45216;-71
2023/11/29 06:51:54;;;;;;;;;10.67;7.00;;;;;;;;5075758;27;45443;-69
2023/11/29 06:54:19;;;;;;;;;5.25;5.25;;;;;;;;5077942;27;45475;-72
2023/11/29 06:56:46;;;;;;;;;9.75;6.25;;;;;;;;5078806;27;45695;-68
2023/11/29 06:59:11;;;;;;;;;5.25;5.25;;;;;;;;5076095;27;45513;-68
2023/11/29 07:01:37;;;;;;;;;9.00;8.25;;;;;;;;5076328;28;45410;-69
2023/11/29 07:04:03;;;;;;;;;10.50;7.75;;;;;;;;5072818;27;45492;-69
2023/11/29 07:06:28;;;;;;;;;11.50;7.00;;;;;;;;5068923;27;46299;-68
2023/11/29 07:08:53;;;;;;;;;9.00;7.50;;;;;;;;5064523;28;45554;-69
2023/11/29 07:11:19;;;;;;;;;6.67;5.00;;;;;;;;5068011;28;45517;-70
2023/11/29 07:13:44;;;;;;;;;7.00;7.00;;;;;;;;5069600;28;46302;-69
2023/11/29 07:16:09;;;;;;;;;11.25;7.00;;;;;;;;5072039;28;46319;-67
2023/11/29 07:18:34;;;;;;;;;10.25;7.00;;;;;;;;5063869;28;45562;-68
2023/11/29 07:21:00;;;;;;;;;6.75;6.25;;;;;;;;5071535;27;45366;-70
2023/11/29 07:23:25;;;;;;;;;9.25;6.25;;;;;;;;5069187;27;46474;-71
2023/11/29 07:25:50;;;;;;;;;6.67;5.00;;;;;;;;5062102;28;45592;-68
2023/11/29 07:28:16;;;;;;;;;11.25;8.75;;;;;;;;5064947;28;45565;-67
2023/11/29 07:30:41;;;;;;;;;2.25;2.25;;;;;;;;5064071;28;45359;-69
2023/11/29 07:33:06;;;;;;;;;9.75;7.00;;;;;;;;5061827;27;45390;-68
2023/11/29 07:35:33;;;;;;;;;8.75;7.75;;;;;;;;5071437;28;47334;-69
2023/11/29 07:37:58;;;;;;;;;8.00;6.75;;;;;;;;5074384;27;45407;-67
2023/11/29 07:40:23;;;;;;;;;10.67;8.33;;;;;;;;5070051;27;46484;-67
2023/11/29 07:42:49;;;;;;;;;9.00;7.00;;;;;;;;5065953;28;45524;-67
2023/11/29 07:45:14;;;;;;;;;11.00;7.00;;;;;;;;5074555;28;46184;-68
2023/11/29 07:47:40;;;;;;;;;11.75;10.00;;;;;;;;5072628;28;45331;-67
2023/11/29 07:50:06;;;;;;;;;13.75;10.75;;;;;;;;5083259;27;45387;-68
2023/11/29 07:52:35;;;;;;;;;12.00;8.25;;;;;;;;5075610;28;45531;-67
2023/11/29 07:55:00;;;;;;;;;11.50;8.00;;;;;;;;5077509;27;45961;-67
2023/11/29 07:57:26;;;;;;;;;12.50;8.25;;;;;;;;5084575;27;45359;-67
2023/11/29 07:59:52;;;;;;;;;11.50;11.50;;;;;;;;5077763;28;45428;-67
2023/11/29 08:02:17;;;;;;;;;13.33;9.33;;;;;;;;5076626;28;45323;-67
2023/11/29 08:04:42;;;;;;;;;7.00;7.00;;;;;;;;5077181;27;46452;-67
2023/11/29 08:07:08;;;;;;;;;7.67;7.67;;;;;;;;5074736;27;45432;-69
2023/11/29 08:09:33;;;;;;;;;7.00;6.00;;;;;;;;5064011;28;45482;-67
2023/11/29 08:11:58;;;;;;;;;14.67;11.33;;;;;;;;5063193;28;45529;-67
2023/11/29 08:14:23;;;;;;;;;9.00;8.25;;;;;;;;5065443;28;46351;-67
2023/11/29 08:16:49;;;;;;;;;10.33;8.67;;;;;;;;5059651;28;45312;-69
2023/11/29 08:19:14;;;;;;;;;8.00;8.00;;;;;;;;5067732;28;45524;-67
2023/11/29 08:21:40;;;;;;;;;11.75;7.75;;;;;;;;5047865;28;45241;-69
2023/11/29 08:24:05;;;;;;;;;8.00;8.00;;;;;;;;5060287;28;46072;-67
2023/11/29 08:26:31;;;;;;;;;12.50;10.25;;;;;;;;5060822;28;45535;-67
2023/11/29 08:28:56;;;;;;;;;13.00;9.75;;;;;;;;5057646;28;45288;-67
2023/11/29 08:31:21;;;;;;;;;6.00;6.00;;;;;;;;5065475;28;45340;-68
2023/11/29 08:33:46;;;;;;;;;10.75;7.75;;;;;;;;5060044;28;46196;-67
2023/11/29 08:36:12;;;;;;;;;11.50;7.75;;;;;;;;5073963;27;45422;-68
2023/11/29 08:38:37;;;;;;;;;11.00;7.00;;;;;;;;5075097;28;45459;-67
2023/11/29 08:41:02;;;;;;;;;8.25;8.25;;;;;;;;5070800;28;45499;-69
2023/11/29 08:43:28;;;;;;;;;13.50;10.00;;;;;;;;5162002;22;47714;-67
2023/11/29 08:45:53;;;;;;;;;12.50;8.75;;;;;;;;5053938;28;45399;-67
2023/11/29 08:48:18;;;;;;;;;11.00;8.00;;;;;;;;5053295;28;45200;-67
2023/11/29 08:50:43;;;;;;;;;8.50;7.00;;;;;;;;5055154;28;45142;-67
2023/11/29 08:53:08;;;;;;;;;12.00;9.25;;;;;;;;5053534;28;46212;-68
2023/11/29 08:55:35;;;;;;;;;12.25;12.25;;;;;;;;5049910;28;46979;-67
2023/11/29 08:58:02;;;;;;;;;11.75;9.25;;;;;;;;5052784;28;45336;-68
2023/11/29 09:00:27;;;;;;;;;10.75;9.25;;;;;;;;5053351;28;45446;-67
2023/11/29 09:02:55;;;;;;;;;12.25;10.50;;;;;;;;5054477;28;45759;-67
2023/11/29 09:05:22;;;;;;;;;12.50;9.75;;;;;;;;5053957;28;45502;-67
2023/11/29 09:07:48;;;;;;;;;11.50;10.75;;;;;;;;5054000;28;45318;-67
2023/11/29 09:10:13;;;;;;;;;11.50;10.75;;;;;;;;5036674;28;46476;-69
2023/11/29 09:12:38;;;;;;;;;13.50;11.25;;;;;;;;5053810;28;46267;-68
2023/11/29 09:15:05;;;;;;;;;11.00;8.50;;;;;;;;5054348;28;45352;-67
2023/11/29 09:17:31;;;;;;;;;12.75;8.25;;;;;;;;5053568;28;45156;-69
2023/11/29 09:19:56;;;;;;;;;14.75;10.50;;;;;;;;5053200;28;45388;-68
2023/11/29 09:22:21;;;;;;;;;12.00;11.00;;;;;;;;5054661;28;46799;-67
2023/11/29 09:24:48;;;;;;;;;10.50;8.50;;;;;;;;5055509;28;45277;-68
2023/11/29 09:27:13;;;;;;;;;11.00;11.00;;;;;;;;5036403;28;45561;-67
2023/11/29 09:29:38;;;;;;;;;8.75;8.00;;;;;;;;5054126;28;45280;-67
2023/11/29 09:32:04;;;;;;;;;7.33;7.33;;;;;;;;5053693;28;45620;-67
2023/11/29 09:34:30;;;;;;;;;11.75;8.00;;;;;;;;5053440;28;45481;-68
2023/11/29 09:36:59;;;;;;;;;17.75;13.00;;;;;;;;5054770;28;45339;-67
2023/11/29 09:39:24;;;;;;;;;12.00;8.50;;;;;;;;5050436;28;45631;-67
2023/11/29 09:41:51;;;;;;;;;13.67;8.00;;;;;;;;5053939;28;46218;-67
2023/11/29 09:44:17;;;;;;;;;9.00;8.00;;;;;;;;5053906;28;45441;-67
2023/11/29 09:46:43;;;;;;;;;12.00;9.00;;;;;;;;5052962;28;45414;-66
2023/11/29 09:49:08;;;;;;;;;16.50;11.75;;;;;;;;5053093;28;45260;-70
2023/11/29 09:51:33;;;;;;;;;8.75;6.00;;;;;;;;5053086;28;46665;-68
2023/11/29 09:53:58;;;;;;;;;8.00;8.00;;;;;;;;5051999;28;45359;-67
2023/11/29 09:56:24;;;;;;;;;7.50;6.50;;;;;;;;5052994;28;45438;-68
2023/11/29 09:58:49;;;;;;;;;13.50;12.50;;;;;;;;5053775;28;45363;-67
2023/11/29 10:01:15;;;;;;;;;8.25;8.25;;;;;;;;5057497;28;46084;-69
2023/11/29 10:03:40;;;;;;;;;11.00;7.75;;;;;;;;5056918;28;45423;-69
2023/11/29 10:06:06;;;;;;;;;9.75;8.00;;;;;;;;5055344;28;45434;-69
2023/11/29 10:08:31;;;;;;;;;11.75;9.00;;;;;;;;5057366;28;45417;-67
2023/11/29 10:10:56;;;;;;;;;10.33;10.33;;;;;;;;5039685;28;46489;-68
2023/11/29 10:13:22;;;;;;;;;11.50;8.75;;;;;;;;5051791;28;46254;-69
2023/11/29 10:15:48;;;;;;;;;8.00;7.00;;;;;;;;5056429;28;45355;-67
2023/11/29 10:18:14;;;;;;;;;9.00;8.50;;;;;;;;5057053;28;45511;-68
2023/11/29 10:20:43;;;;;;;;;10.50;9.25;;;;;;;;5055527;28;45799;-67
2023/11/29 10:23:10;;;;;;;;;9.00;9.00;;;;;;;;5053051;28;45521;-68
2023/11/29 10:25:36;;;;;;;;;15.25;8.75;;;;;;;;5057502;28;45343;-67
2023/11/29 10:28:01;;;;;;;;;10.25;8.75;;;;;;;;5056770;28;45351;-67
2023/11/29 10:30:26;;;;;;;;;14.50;12.00;;;;;;;;5055419;28;45618;-67
2023/11/29 10:32:52;;;;;;;;;12.33;7.00;;;;;;;;5057187;28;45566;-69
2023/11/29 10:35:17;;;;;;;;;11.75;9.50;;;;;;;;5056237;28;45379;-69
2023/11/29 10:37:44;;;;;;;;;12.25;8.25;;;;;;;;5055050;28;45453;-68
2023/11/29 10:40:10;;;;;;;;;11.75;9.00;;;;;;;;5055133;28;46734;-67
2023/11/29 10:42:37;;;;;;;;;8.50;8.25;;;;;;;;5055945;28;45375;-67
2023/11/29 10:45:03;;;;;;;;;11.25;9.00;;;;;;;;5055959;28;45332;-67
2023/11/29 10:47:34;;;;;;;;;14.25;8.75;;;;;;;;5057130;28;45817;-68
2023/11/29 10:50:05;;;;;;;;;10.25;8.75;;;;;;;;5055859;28;46542;-67
2023/11/29 10:52:32;;;;;;;;;8.75;7.25;;;;;;;;5057396;28;45471;-67
2023/11/29 10:54:57;;;;;;;;;14.75;12.75;;;;;;;;5055526;28;45435;-68
2023/11/29 10:57:26;;;;;;;;;8.50;8.50;;;;;;;;5056462;28;45374;-69
2023/11/29 10:59:56;;;;;;;;;11.25;9.00;;;;;;;;5055643;28;45733;-67
2023/11/29 11:02:21;;;;;;;;;13.00;10.25;;;;;;;;5056763;28;45874;-69
2023/11/29 11:05:00;;;;;;;;;14.50;13.50;;;;;;;;5055470;28;45853;-67
2023/11/29 11:07:42;;;;;;;;;13.50;10.00;;;;;;;;5054761;28;45357;-67
2023/11/29 11:10:09;;;;;;;;;6.75;6.75;;;;;;;;5056527;28;45973;-67
2023/11/29 11:12:34;;;;;;;;;11.25;10.00;;;;;;;;5055431;28;45465;-67
2023/11/29 11:15:02;;;;;;;;;11.75;11.75;;;;;;;;5054503;28;45508;-69
2023/11/29 11:17:27;;;;;;;;;13.50;11.25;;;;;;;;5054360;28;45461;-68
2023/11/29 11:19:53;;;;;;;;;11.67;11.00;;;;;;;;5056637;28;45663;-68
2023/11/29 11:22:24;;;;;;;;;14.00;10.00;;;;;;;;5056106;28;45450;-68
2023/11/29 11:25:00;;;;;;;;;9.50;8.00;;;;;;;;5056083;28;45462;-68
2023/11/29 11:27:45;;;;;;;;;10.75;9.50;;;;;;;;5055568;28;45616;-68
2023/11/29 11:30:17;;;;;;;;;9.25;9.25;;;;;;;;5055648;28;45812;-69
2023/11/29 11:32:49;;;;;;;;;9.25;9.25;;;;;;;;5055015;28;45433;-69
2023/11/29 11:35:27;;;;;;;;;8.00;8.00;;;;;;;;5055533;28;45393;-68
2023/11/29 11:37:58;;;;;;;;;8.00;8.00;;;;;;;;5053413;28;45558;-67
2023/11/29 11:40:24;;;;;;;;;7.25;7.25;;;;;;;;5052980;28;46725;-68
2023/11/29 11:42:50;;;;;;;;;9.75;7.50;;;;;;;;5060666;28;45721;-69
2023/11/29 11:45:16;;;;;;;;;8.50;7.50;;;;;;;;5055242;28;45533;-69
2023/11/29 11:47:47;;;;;;;;;8.75;8.75;;;;;;;;5055136;28;45443;-69
2023/11/29 11:50:12;;;;;;;;;7.50;7.00;;;;;;;;5055021;28;46608;-68
2023/11/29 11:52:38;;;;;;;;;10.00;9.00;;;;;;;;5052374;28;46647;-68
2023/11/29 11:55:04;;;;;;;;;8.75;8.00;;;;;;;;5056059;28;45442;-68
2023/11/29 11:57:30;;;;;;;;;9.25;8.25;;;;;;;;5056341;28;45789;-68
2023/11/29 11:59:56;;;;;;;;;9.75;9.25;;;;;;;;5055508;28;45634;-68
2023/11/29 12:02:21;;;;;;;;;7.00;5.50;;;;;;;;5054299;28;45587;-70
2023/11/29 12:04:46;;;;;;;;;10.00;9.00;;;;;;;;5055760;28;45494;-69
2023/11/29 12:07:11;;;;;;;;;7.67;7.67;;;;;;;;5054368;28;45420;-67
2023/11/29 12:09:36;;;;;;;;;7.67;5.67;;;;;;;;5055424;28;46253;-68
2023/11/29 12:12:08;;;;;;;;;8.00;6.33;;;;;;;;5054771;28;46200;-68
2023/11/29 12:14:33;;;;;;;;;0.00;0.00;;;;;;;;5053827;28;45367;-68
2023/11/29 12:16:59;;;;;;;;;4.50;4.50;;;;;;;;5055158;28;46292;-69
2023/11/29 12:19:24;;;;;;;;;5.50;3.50;;;;;;;;5055399;28;45743;-69
2023/11/29 12:21:49;;;;;;;;;3.67;3.67;;;;;;;;5054664;28;47138;-67
2023/11/29 12:24:14;;;;;;;;;6.33;4.00;;;;;;;;5054507;28;45656;-68
2023/11/29 12:26:39;;;;;;;;;5.00;4.00;;;;;;;;5052834;28;45475;-67
2023/11/29 12:29:05;;;;;;;;;4.00;4.00;;;;;;;;5054928;28;45611;-68
2023/11/29 12:31:34;;;;;;;;;7.25;5.00;;;;;;;;5053776;28;45456;-68
2023/11/29 12:33:59;;;;;;;;;7.00;5.00;;;;;;;;5052232;28;47195;-69
2023/11/29 12:36:24;;;;;;;;;4.00;4.00;;;;;;;;5036514;28;45620;-67
2023/11/29 12:38:50;;;;;;;;;5.50;5.00;;;;;;;;5054572;28;46565;-69
2023/11/29 12:41:15;;;;;;;;;3.00;3.00;;;;;;;;5053065;28;46218;-67
2023/11/29 12:43:40;;;;;;;;;3.67;3.67;;;;;;;;5053856;28;45540;-69
2023/11/29 12:46:05;;;;;;;;;4.00;3.25;;;;;;;;5054635;28;45419;-68
2023/11/29 12:48:31;;;;;;;;;5.75;4.25;;;;;;;;5054150;28;45715;-67
2023/11/29 12:50:56;;;;;;;;;4.00;4.00;;;;;;;;5053761;28;45532;-69
2023/11/29 12:53:21;;;;;;;;;4.33;4.00;;;;;;;;5053778;28;46662;-68
2023/11/29 12:55:46;;;;;;;;;4.00;3.00;;;;;;;;5053576;28;45602;-67
2023/11/29 12:58:12;;;;;;;;;4.00;4.00;;;;;;;;5054927;28;46526;-68
2023/11/29 13:00:38;;;;;;;;;3.00;3.00;;;;;;;;5053883;28;45868;-67
2023/11/29 13:03:04;;;;;;;;;3.00;3.00;;;;;;;;5055226;28;45356;-68
2023/11/29 13:05:29;;;;;;;;;1.33;1.33;;;;;;;;5052054;28;45369;-68
2023/11/29 13:07:54;;;;;;;;;2.67;2.00;;;;;;;;5053341;28;45738;-68
2023/11/29 13:10:19;;;;;;;;;3.00;1.67;;;;;;;;5052218;28;45408;-68
2023/11/29 13:12:44;;;;;;;;;3.00;3.00;;;;;;;;5052625;28;45270;-68
2023/11/29 13:15:10;;;;;;;;;5.33;2.00;;;;;;;;5054974;28;45291;-69
2023/11/29 13:17:35;;;;;;;;;2.00;2.00;;;;;;;;5053481;28;46278;-68
2023/11/29 13:20:00;;;;;;;;;2.00;2.00;;;;;;;;5051959;28;45591;-68
2023/11/29 13:22:25;;;;;;;;;5.00;4.00;;;;;;;;5054678;28;45327;-67
2023/11/29 13:24:50;;;;;;;;;2.00;2.00;;;;;;;;5052818;28;45475;-67
2023/11/29 13:27:16;;;;;;;;;3.33;2.00;;;;;;;;5054783;28;45438;-67
2023/11/29 13:29:41;;;;;;;;;3.00;3.00;;;;;;;;5053666;28;45395;-67
2023/11/29 13:32:06;;;;;;;;;4.00;4.00;;;;;;;;5053367;28;45299;-68
2023/11/29 13:34:32;;;;;;;;;4.33;2.67;;;;;;;;5054966;28;45711;-68
2023/11/29 13:36:58;;;;;;;;;3.00;3.00;;;;;;;;5056925;28;47246;-68
2023/11/29 13:39:25;;;;;;;;;3.67;3.67;;;;;;;;5056418;28;45629;-68
2023/11/29 13:41:50;;;;;;;;;3.67;3.00;;;;;;;;5056440;28;45504;-67
2023/11/29 13:44:17;;;;;;;;;7.33;3.67;;;;;;;;5035626;28;45581;-67
2023/11/29 13:46:43;;;;;;;;;4.67;4.67;;;;;;;;5037610;28;46538;-67
2023/11/29 13:49:08;;;;;;;;;3.00;3.00;;;;;;;;5037599;28;45376;-67
2023/11/29 13:51:33;;;;;;;;;4.33;3.67;;;;;;;;5037610;28;45364;-70
2023/11/29 13:53:58;;;;;;;;;6.67;4.67;;;;;;;;5035430;28;45455;-67
2023/11/29 13:56:23;;;;;;;;;5.00;5.00;;;;;;;;5037834;28;46316;-68
2023/11/29 13:58:49;;;;;;;;;5.33;4.00;;;;;;;;5034609;28;46252;-69
2023/11/29 14:01:15;;;;;;;;;4.33;4.33;;;;;;;;5037490;28;46252;-68
2023/11/29 14:03:40;;;;;;;;;5.00;4.00;;;;;;;;5037474;28;45479;-68
2023/11/29 14:06:05;;;;;;;;;8.00;4.33;;;;;;;;5035960;28;47241;-68
2023/11/29 14:08:31;;;;;;;;;9.00;5.67;;;;;;;;5034295;28;45458;-68
2023/11/29 14:10:57;;;;;;;;;4.00;4.00;;;;;;;;5036145;28;45590;-69
2023/11/29 14:13:28;;;;;;;;;8.33;4.67;;;;;;;;5034901;28;45559;-68
2023/11/29 14:15:53;;;;;;;;;8.33;4.67;;;;;;;;5036900;28;46581;-69
2023/11/29 14:18:18;;;;;;;;;4.33;4.33;;;;;;;;5036628;28;45693;-69
2023/11/29 14:20:43;;;;;;;;;8.00;4.00;;;;;;;;5035342;28;46124;-68
2023/11/29 14:23:09;;;;;;;;;7.00;4.00;;;;;;;;5037722;28;45328;-68